Time;durP1;ratioP1;P1;durP2;ratioP2;P2;SDS_P1;SDS_P2;PMS_P1;PMS_P2;Temp;Humidity;BMP_temperature;BMP_pressure;BME280_temperature;BME280_humidity;BME280_pressure;Samples;Min_cycle;Max_cycle;Signal;HPM_P1;HPM_P2
2021/09/05 00:04:30;;;;;;;4.37;3.97;;;18.40;33.70;;;;;;10478467;28;20228;-76
2021/09/05 00:09:35;;;;;;;4.10;3.80;;;18.40;34.10;;;;;;10480944;28;20999;-76
2021/09/05 00:14:38;;;;;;;5.17;4.47;;;18.30;33.60;;;;;;10477686;28;20711;-75
2021/09/05 00:19:43;;;;;;;4.80;4.40;;;18.30;33.90;;;;;;10479003;28;20232;-76
2021/09/05 00:24:46;;;;;;;5.07;4.57;;;18.30;34.10;;;;;;10478038;28;20231;-76
2021/09/05 00:29:49;;;;;;;5.53;5.03;;;18.20;33.90;;;;;;10478995;28;20254;-76
2021/09/05 00:34:54;;;;;;;5.07;4.67;;;18.20;33.90;;;;;;10480952;28;20217;-76
2021/09/05 00:39:57;;;;;;;5.17;4.67;;;18.10;34.20;;;;;;10475455;28;20609;-76
2021/09/05 00:45:00;;;;;;;5.70;4.57;;;18.00;34.00;;;;;;10480383;28;20230;-76
2021/09/05 00:50:06;;;;;;;4.90;4.50;;;17.90;34.30;;;;;;10476979;28;20227;-76
2021/09/05 00:55:10;;;;;;;5.07;4.57;;;17.90;34.70;;;;;;10477659;28;20224;-76
2021/09/05 01:00:14;;;;;;;5.80;5.30;;;17.80;34.60;;;;;;10477869;28;20345;-76
2021/09/05 01:05:18;;;;;;;4.53;4.13;;;17.80;34.60;;;;;;10482659;28;20220;-76
2021/09/05 01:10:22;;;;;;;4.57;4.17;;;17.60;34.40;;;;;;10487866;28;20240;-76
2021/09/05 01:15:25;;;;;;;4.83;4.43;;;17.60;34.40;;;;;;10484816;28;20701;-76
2021/09/05 01:20:30;;;;;;;5.23;4.50;;;17.50;34.30;;;;;;10487563;28;20224;-76
2021/09/05 01:25:33;;;;;;;4.57;4.17;;;17.50;34.70;;;;;;10483534;28;20220;-76
2021/09/05 01:30:38;;;;;;;5.23;4.73;;;17.40;34.20;;;;;;10484323;28;20232;-76
2021/09/05 01:35:41;;;;;;;5.10;4.70;;;17.40;35.20;;;;;;10486264;28;20779;-76
2021/09/05 01:40:44;;;;;;;5.50;5.03;;;17.40;34.30;;;;;;10483556;28;20231;-76
2021/09/05 01:45:49;;;;;;;5.57;5.07;;;17.30;34.20;;;;;;10485124;28;20219;-77
2021/09/05 01:50:52;;;;;;;5.80;5.30;;;17.20;35.00;;;;;;10485733;28;20235;-76
2021/09/05 01:55:55;;;;;;;5.60;5.10;;;17.10;34.70;;;;;;10481746;28;20225;-76
2021/09/05 02:01:00;;;;;;;5.33;4.83;;;17.00;35.00;;;;;;10485424;28;20688;-76
2021/09/05 02:06:03;;;;;;;5.27;4.60;;;16.90;35.80;;;;;;10485391;28;20224;-76
2021/09/05 02:11:06;;;;;;;5.50;5.00;;;16.90;35.30;;;;;;10485613;28;20220;-76
2021/09/05 02:16:12;;;;;;;5.17;4.77;;;16.90;35.40;;;;;;10483676;28;20220;-76
2021/09/05 02:21:16;;;;;;;5.57;4.93;;;16.90;35.60;;;;;;10483291;28;20716;-76
2021/09/05 02:26:19;;;;;;;5.20;4.30;;;16.90;35.10;;;;;;10485485;28;20232;-76
2021/09/05 02:31:24;;;;;;;5.60;5.10;;;16.90;35.10;;;;;;10483129;28;20239;-76
2021/09/05 02:36:27;;;;;;;4.77;4.37;;;16.90;35.50;;;;;;10484108;28;20228;-76
2021/09/05 02:41:30;;;;;;;4.90;4.50;;;16.90;35.10;;;;;;10482148;28;20231;-76
2021/09/05 02:46:34;;;;;;;5.13;4.63;;;16.80;35.20;;;;;;10484572;28;20227;-76
2021/09/05 02:51:39;;;;;;;4.80;4.40;;;16.80;35.50;;;;;;10481924;28;20228;-76
2021/09/05 02:56:42;;;;;;;4.43;4.13;;;16.70;35.30;;;;;;10481773;28;20235;-76
2021/09/05 03:01:47;;;;;;;5.20;4.77;;;16.70;35.30;;;;;;10483230;28;20243;-76
2021/09/05 03:06:51;;;;;;;5.43;4.87;;;16.60;35.50;;;;;;10482196;28;20270;-76
2021/09/05 03:11:54;;;;;;;5.53;4.50;;;16.50;35.10;;;;;;10483343;28;20228;-76
2021/09/05 03:16:58;;;;;;;4.23;3.93;;;16.40;35.40;;;;;;10481871;28;20234;-76
2021/09/05 03:22:01;;;;;;;5.07;4.67;;;16.30;35.90;;;;;;10482195;28;20240;-76
2021/09/05 03:27:05;;;;;;;5.63;4.80;;;16.30;35.90;;;;;;10479594;28;20692;-76
2021/09/05 03:32:09;;;;;;;5.90;4.97;;;16.20;35.70;;;;;;10479735;28;20220;-76
2021/09/05 03:37:12;;;;;;;5.03;4.60;;;16.20;35.90;;;;;;10481318;28;20224;-76
2021/09/05 03:42:16;;;;;;;4.93;4.53;;;16.20;35.50;;;;;;10481230;28;23052;-76
2021/09/05 03:47:20;;;;;;;5.33;4.83;;;16.20;35.60;;;;;;10480263;28;20228;-76
2021/09/05 03:52:25;;;;;;;4.20;3.80;;;16.20;35.90;;;;;;10481478;28;20228;-76
2021/09/05 03:57:28;;;;;;;4.93;4.10;;;16.10;35.60;;;;;;10478841;28;20257;-76
2021/09/05 04:02:33;;;;;;;4.63;4.23;;;16.00;35.70;;;;;;10480577;28;20225;-76
2021/09/05 04:07:39;;;;;;;4.33;4.03;;;16.00;36.20;;;;;;10477828;28;20224;-76
2021/09/05 04:12:44;;;;;;;4.40;3.90;;;16.00;36.00;;;;;;10479540;28;20716;-76
2021/09/05 04:17:48;;;;;;;4.87;4.30;;;16.00;36.10;;;;;;10477598;28;20700;-76
2021/09/05 04:22:52;;;;;;;4.97;4.47;;;16.00;36.10;;;;;;10476039;28;20232;-76
2021/09/05 04:27:55;;;;;;;6.67;4.90;;;16.00;35.70;;;;;;10479716;28;20227;-76
2021/09/05 04:32:59;;;;;;;4.50;4.20;;;16.00;35.70;;;;;;10479181;28;20314;-76
2021/09/05 04:38:02;;;;;;;4.90;4.50;;;15.90;35.90;;;;;;10483412;28;20592;-76
2021/09/05 04:43:06;;;;;;;4.90;4.50;;;15.80;35.60;;;;;;10488038;28;20250;-76
2021/09/05 04:48:11;;;;;;;4.67;4.27;;;15.70;35.70;;;;;;10484129;28;20235;-76
2021/09/05 04:53:14;;;;;;;4.40;4.00;;;15.70;36.10;;;;;;10489154;28;20224;-76
2021/09/05 04:58:17;;;;;;;4.73;4.33;;;15.60;35.90;;;;;;10484867;28;20599;-76
2021/09/05 05:03:22;;;;;;;4.23;3.83;;;15.60;35.90;;;;;;10488542;28;20254;-76
2021/09/05 05:08:45;;;;;;;4.43;4.03;;;15.60;36.30;;;;;;10486745;28;20216;-76
2021/09/05 05:13:48;;;;;;;4.73;4.33;;;15.60;36.10;;;;;;10485929;28;20224;-76
2021/09/05 05:18:53;;;;;;;4.03;3.63;;;15.60;36.30;;;;;;10485825;28;20247;-76
2021/09/05 05:23:56;;;;;;;3.80;3.50;;;15.60;36.60;;;;;;10484340;28;20235;-76
2021/09/05 05:29:00;;;;;;;4.67;4.27;;;15.60;36.30;;;;;;10487480;28;20220;-76
2021/09/05 05:34:04;;;;;;;4.40;4.00;;;15.50;36.60;;;;;;10485169;28;20223;-76
2021/09/05 05:39:07;;;;;;;4.70;4.30;;;15.50;37.00;;;;;;10486272;28;20239;-76
2021/09/05 05:44:11;;;;;;;5.23;4.80;;;15.50;36.70;;;;;;10482470;28;21118;-76
2021/09/05 05:49:15;;;;;;;5.10;4.70;;;15.50;37.20;;;;;;10484778;28;20224;-76
2021/09/05 05:54:18;;;;;;;6.20;5.17;;;15.50;37.70;;;;;;10486674;28;20236;-76
2021/09/05 05:59:21;;;;;;;5.50;5.00;;;15.60;37.60;;;;;;10481452;28;20236;-76
2021/09/05 06:04:26;;;;;;;5.57;5.07;;;15.60;37.70;;;;;;10484222;28;20707;-76
2021/09/05 06:09:29;;;;;;;7.30;5.30;;;15.50;38.20;;;;;;10485209;28;20228;-76
2021/09/05 06:14:32;;;;;;;5.33;4.83;;;15.60;38.00;;;;;;10483575;28;20221;-76
2021/09/05 06:19:37;;;;;;;5.10;4.60;;;15.70;38.20;;;;;;10484485;28;20319;-76
2021/09/05 06:24:40;;;;;;;6.30;5.77;;;15.70;39.00;;;;;;10481943;28;20231;-76
2021/09/05 06:29:43;;;;;;;5.90;5.30;;;15.80;38.70;;;;;;10484826;28;20231;-76
2021/09/05 06:34:48;;;;;;;5.70;5.20;;;15.80;38.90;;;;;;10481253;28;20220;-76
2021/09/05 06:39:52;;;;;;;5.67;5.13;;;15.90;39.70;;;;;;10478168;28;20235;-73
2021/09/05 06:44:55;;;;;;;6.17;5.43;;;16.00;39.20;;;;;;10482756;28;20307;-72
2021/09/05 06:49:59;;;;;;;6.43;5.77;;;16.10;39.30;;;;;;10480877;28;20697;-73
2021/09/05 06:55:03;;;;;;;8.47;6.27;;;16.20;39.90;;;;;;10481822;28;20216;-73
2021/09/05 07:00:08;;;;;;;7.67;6.97;;;16.30;39.40;;;;;;10477471;28;20263;-72
2021/09/05 07:05:13;;;;;;;7.27;6.57;;;16.40;40.20;;;;;;10480408;28;20711;-73
2021/09/05 07:10:18;;;;;;;7.63;7.03;;;16.50;40.50;;;;;;10482662;28;20597;-72
2021/09/05 07:15:21;;;;;;;7.53;6.83;;;16.70;40.20;;;;;;10482065;28;20239;-72
2021/09/05 07:20:26;;;;;;;7.27;6.67;;;16.80;40.20;;;;;;10480497;28;20263;-72
2021/09/05 07:25:29;;;;;;;7.60;6.80;;;17.00;41.20;;;;;;10482026;28;20251;-72
2021/09/05 07:30:32;;;;;;;8.70;7.90;;;17.10;40.50;;;;;;10480778;28;20596;-72
2021/09/05 07:35:37;;;;;;;8.57;7.77;;;17.30;40.70;;;;;;10480153;28;20343;-72
2021/09/05 07:40:40;;;;;;;7.97;7.27;;;17.40;41.50;;;;;;10478164;28;20224;-72
2021/09/05 07:45:43;;;;;;;8.03;7.33;;;17.60;41.20;;;;;;10480290;28;20228;-73
2021/09/05 07:50:48;;;;;;;9.70;7.73;;;17.80;41.40;;;;;;10478895;28;20252;-72
2021/09/05 07:55:51;;;;;;;8.57;7.87;;;18.00;42.10;;;;;;10477544;28;20524;-72
2021/09/05 08:00:55;;;;;;;8.33;7.50;;;18.30;42.00;;;;;;10476692;28;20716;-78
2021/09/05 08:06:00;;;;;;;8.77;7.60;;;18.50;42.20;;;;;;10481911;28;20775;-78
2021/09/05 08:11:04;;;;;;;7.17;6.57;;;18.80;42.50;;;;;;10479235;28;20244;-77
2021/09/05 08:16:07;;;;;;;6.80;6.20;;;19.10;41.80;;;;;;10483868;28;20602;-78
2021/09/05 08:21:12;;;;;;;7.57;6.87;;;19.30;41.30;;;;;;10478765;28;20234;-79
2021/09/05 08:26:15;;;;;;;7.67;6.97;;;19.70;41.30;;;;;;10481943;28;20224;-78
2021/09/05 08:31:18;;;;;;;7.97;7.20;;;20.00;41.20;;;;;;10478632;28;20228;-78
2021/09/05 08:36:23;;;;;;;7.50;6.80;;;20.30;41.30;;;;;;10481442;28;20289;-78
2021/09/05 08:41:26;;;;;;;8.37;7.57;;;20.70;41.30;;;;;;10477856;28;20228;-78
2021/09/05 08:46:30;;;;;;;7.37;6.67;;;21.00;40.90;;;;;;10479818;28;20758;-78
2021/09/05 08:51:34;;;;;;;7.57;6.70;;;21.40;40.90;;;;;;10479527;28;20600;-78
2021/09/05 08:56:37;;;;;;;6.87;6.17;;;21.70;40.80;;;;;;10477970;28;20235;-74
2021/09/05 09:01:52;;;;;;;7.13;6.53;;;22.00;40.60;;;;;;10474830;28;20257;-76
2021/09/05 09:06:57;;;;;;;6.93;6.33;;;22.30;40.30;;;;;;10479216;28;21062;-77
2021/09/05 09:12:01;;;;;;;6.97;6.30;;;22.60;39.80;;;;;;10477342;28;20228;-76
2021/09/05 09:17:04;;;;;;;6.50;5.90;;;23.00;40.10;;;;;;10475869;28;20680;-76
2021/09/05 09:22:17;;;;;;;6.10;5.60;;;23.30;39.40;;;;;;10478750;28;20224;-74
2021/09/05 09:27:20;;;;;;;6.07;5.50;;;23.60;39.20;;;;;;10484571;28;20228;-78
2021/09/05 09:32:26;;;;;;;5.90;5.40;;;23.90;38.70;;;;;;10485228;28;20235;-78
2021/09/05 09:37:30;;;;;;;5.83;5.33;;;24.20;38.40;;;;;;10483958;28;20228;-74
2021/09/05 09:42:35;;;;;;;5.60;5.10;;;24.50;37.40;;;;;;10481974;28;20229;-78
2021/09/05 09:47:43;;;;;;;5.57;5.07;;;24.70;36.70;;;;;;10485867;28;20712;-79
2021/09/05 09:52:48;;;;;;;5.20;4.70;;;25.00;36.00;;;;;;10483087;28;20242;-79
2021/09/05 09:57:53;;;;;;;5.20;4.80;;;25.30;35.40;;;;;;10485533;28;20248;-79
2021/09/05 10:02:57;;;;;;;5.33;4.83;;;25.50;35.30;;;;;;10485444;28;20234;-79
2021/09/05 10:08:03;;;;;;;6.20;5.10;;;25.80;35.00;;;;;;10485868;28;20220;-79
2021/09/05 10:13:07;;;;;;;5.00;4.60;;;26.10;33.90;;;;;;10485707;28;20224;-78
2021/09/05 10:18:12;;;;;;;5.77;5.27;;;26.30;34.30;;;;;;10484183;28;20220;-78
2021/09/05 10:23:27;;;;;;;5.77;5.23;;;26.50;33.30;;;;;;10484722;28;20224;-79
2021/09/05 10:28:37;;;;;;;5.17;4.77;;;26.70;32.30;;;;;;10484333;28;20227;-79
2021/09/05 10:33:43;;;;;;;4.87;4.47;;;26.90;30.90;;;;;;10477675;28;20234;-74
2021/09/05 10:38:48;;;;;;;6.10;5.00;;;27.00;31.50;;;;;;10481104;28;20224;-74
2021/09/05 10:44:08;;;;;;;5.03;4.70;;;27.20;30.50;;;;;;10482847;28;20232;-72
2021/09/05 10:49:12;;;;;;;5.73;4.90;;;27.30;29.90;;;;;;10473785;28;20204;-72
2021/09/05 10:54:24;;;;;;;5.03;4.50;;;27.50;30.50;;;;;;10478139;28;20228;-71
2021/09/05 10:59:32;;;;;;;5.20;4.80;;;27.60;28.60;;;;;;10477909;28;20224;-80
2021/09/05 11:04:46;;;;;;;5.20;4.73;;;27.70;29.70;;;;;;10479606;28;20629;-72
2021/09/05 11:09:51;;;;;;;5.00;4.60;;;27.70;28.60;;;;;;10478621;28;20231;-73
2021/09/05 11:14:56;;;;;;;5.13;4.63;;;27.80;28.60;;;;;;10480795;28;20224;-73
2021/09/05 11:20:01;;;;;;;4.90;4.50;;;27.90;29.00;;;;;;10481202;28;20273;-73
2021/09/05 11:25:18;;;;;;;4.90;4.50;;;27.90;28.70;;;;;;10479835;28;20239;-79
2021/09/05 11:30:22;;;;;;;4.77;4.37;;;27.90;27.30;;;;;;10481444;28;20235;-79
2021/09/05 11:35:26;;;;;;;4.43;4.13;;;27.90;28.20;;;;;;10478813;28;20230;-73
2021/09/05 11:40:44;;;;;;;4.67;4.27;;;27.90;28.10;;;;;;10479664;28;20775;-73
2021/09/05 11:45:47;;;;;;;4.73;4.33;;;28.00;26.50;;;;;;10480012;28;20224;-73
2021/09/05 11:50:50;;;;;;;5.30;4.90;;;28.00;27.50;;;;;;10478532;28;20231;-73
2021/09/05 11:55:58;;;;;;;4.63;4.27;;;28.00;27.40;;;;;;10481068;28;20216;-72
2021/09/05 12:01:01;;;;;;;4.97;4.53;;;28.00;26.40;;;;;;10477579;28;20227;-78
2021/09/05 12:06:08;;;;;;;5.13;4.63;;;28.00;26.70;;;;;;10484709;28;20230;-79
2021/09/05 12:11:13;;;;;;;5.20;4.70;;;28.00;26.70;;;;;;10483524;28;20231;-78
2021/09/05 12:16:25;;;;;;;5.00;4.50;;;28.00;26.00;;;;;;10483904;28;20224;-80
2021/09/05 12:21:33;;;;;;;4.90;4.50;;;28.00;25.40;;;;;;10480395;28;20239;-79
2021/09/05 12:26:40;;;;;;;5.43;4.93;;;28.00;25.20;;;;;;10480980;28;20267;-74
2021/09/05 12:31:46;;;;;;;5.30;4.50;;;28.00;25.10;;;;;;10478995;28;20220;-74
2021/09/05 12:36:56;;;;;;;5.07;4.50;;;28.00;25.80;;;;;;10478907;28;20212;-75
2021/09/05 12:42:09;;;;;;;5.20;4.70;;;27.90;24.90;;;;;;10479547;28;20224;-74
2021/09/05 12:47:19;;;;;;;5.30;4.80;;;28.00;25.00;;;;;;10478320;28;20247;-74
2021/09/05 12:52:28;;;;;;;7.47;4.97;;;28.00;26.10;;;;;;10479912;28;20228;-74
2021/09/05 12:57:33;;;;;;;4.70;4.30;;;27.90;24.50;;;;;;10483742;28;20227;-79
2021/09/05 13:02:36;;;;;;;4.60;4.20;;;28.00;25.30;;;;;;10485734;28;20653;-79
2021/09/05 13:07:40;;;;;;;4.90;4.50;;;28.00;25.40;;;;;;10484303;28;20223;-78
2021/09/05 13:12:44;;;;;;;4.83;4.43;;;28.00;25.50;;;;;;10475478;28;20224;-74
2021/09/05 13:17:47;;;;;;;4.63;4.23;;;28.00;24.90;;;;;;10488061;28;20227;-79
2021/09/05 13:22:50;;;;;;;5.10;4.70;;;28.00;25.00;;;;;;10483806;28;20577;-71
2021/09/05 13:27:55;;;;;;;5.43;4.93;;;27.90;25.00;;;;;;10486355;28;20220;-71
2021/09/05 13:32:58;;;;;;;4.83;4.50;;;27.90;24.30;;;;;;10481801;28;20744;-72
2021/09/05 13:38:02;;;;;;;4.70;4.30;;;27.90;24.80;;;;;;10485234;28;20220;-76
2021/09/05 13:43:06;;;;;;;4.83;4.47;;;27.90;24.30;;;;;;10483562;28;20230;-77
2021/09/05 13:48:10;;;;;;;4.80;4.40;;;27.90;23.80;;;;;;10482723;28;20607;-77
2021/09/05 13:53:14;;;;;;;5.07;4.67;;;27.90;24.40;;;;;;10484851;28;20220;-77
2021/09/05 13:58:18;;;;;;;4.87;4.47;;;28.00;24.40;;;;;;10483224;28;20224;-77
2021/09/05 14:03:21;;;;;;;5.10;4.70;;;28.00;23.80;;;;;;10483227;28;20231;-74
2021/09/05 14:08:25;;;;;;;4.80;4.40;;;28.10;24.20;;;;;;10485620;28;20700;-76
2021/09/05 14:13:29;;;;;;;4.93;4.53;;;28.10;24.40;;;;;;10480721;28;20235;-79
2021/09/05 14:18:32;;;;;;;4.70;4.30;;;28.20;23.80;;;;;;10486409;28;20244;-79
2021/09/05 14:23:36;;;;;;;4.40;4.10;;;28.20;23.90;;;;;;10487219;28;20745;-79
2021/09/05 14:28:44;;;;;;;4.37;4.07;;;28.30;23.70;;;;;;10487865;28;20224;-79
2021/09/05 14:34:07;;;;;;;4.97;4.57;;;28.20;23.40;;;;;;10487506;28;20227;-79
2021/09/05 14:50:23;;;;;;;4.70;4.30;;;28.20;23.10;;;;;;10481762;28;20259;-77
2021/09/05 14:55:26;;;;;;;5.07;4.57;;;28.20;23.60;;;;;;10483213;28;20234;-77
2021/09/05 15:00:31;;;;;;;4.90;4.50;;;28.20;23.40;;;;;;10480865;28;20228;-77
2021/09/05 15:05:52;;;;;;;4.33;3.93;;;28.30;22.70;;;;;;10481733;28;20235;-77
2021/09/05 15:11:02;;;;;;;4.70;4.30;;;28.20;23.00;;;;;;10481054;28;20234;-77
2021/09/05 15:16:07;;;;;;;4.63;4.27;;;28.20;22.80;;;;;;10483247;28;20220;-77
2021/09/05 15:21:13;;;;;;;4.33;4.03;;;28.20;22.00;;;;;;10477263;28;20204;-77
2021/09/05 15:26:18;;;;;;;4.57;4.13;;;28.20;22.30;;;;;;10482896;28;20590;-77
2021/09/05 15:31:34;;;;;;;4.57;4.17;;;28.20;22.50;;;;;;10480425;28;20240;-77
2021/09/05 15:37:33;;;;;;;4.80;4.40;;;28.20;22.00;;;;;;10481241;28;20244;-77
2021/09/05 15:53:18;;;;;;;4.40;3.93;;;28.20;21.70;;;;;;10480141;28;20238;-77
2021/09/05 15:58:26;;;;;;;5.07;3.93;;;28.20;21.50;;;;;;10480533;28;20938;-77
2021/09/05 16:03:35;;;;;;;4.20;3.60;;;28.10;21.40;;;;;;10476937;28;20767;-78
2021/09/05 16:19:21;;;;;;;4.07;3.77;;;28.10;21.90;;;;;;10477504;28;20224;-78
2021/09/05 16:24:24;;;;;;;3.90;3.60;;;28.10;21.40;;;;;;10479658;28;20234;-78
2021/09/05 16:29:35;;;;;;;4.10;3.80;;;28.10;21.70;;;;;;10473431;28;20223;-79
2021/09/05 16:34:52;;;;;;;3.93;3.63;;;28.10;22.00;;;;;;10479162;28;20251;-71
2021/09/05 16:45:16;;;;;;;7.13;4.73;;;28.10;22.90;;;;;;10476939;28;20965;-74
2021/09/05 16:50:22;;;;;;;5.40;4.90;;;28.10;23.00;;;;;;10476478;28;20235;-74
2021/09/05 16:55:25;;;;;;;5.30;4.90;;;28.00;22.80;;;;;;10480090;28;20226;-78
2021/09/05 17:00:28;;;;;;;5.03;4.60;;;27.90;22.90;;;;;;10474082;28;20258;-79
2021/09/05 17:05:33;;;;;;;5.13;4.47;;;27.80;23.20;;;;;;10477607;28;20290;-79
2021/09/05 17:10:38;;;;;;;5.17;4.67;;;27.60;23.60;;;;;;10476547;28;20232;-71
2021/09/05 17:15:41;;;;;;;6.03;4.80;;;27.50;23.80;;;;;;10478116;28;20217;-78
2021/09/05 17:20:47;;;;;;;5.23;4.43;;;27.40;23.90;;;;;;10475587;28;21985;-72
2021/09/05 17:25:50;;;;;;;4.70;4.30;;;27.20;24.30;;;;;;10478723;28;20220;-79
2021/09/05 17:30:53;;;;;;;5.03;4.53;;;27.10;24.40;;;;;;10475228;28;20233;-74
2021/09/05 17:35:58;;;;;;;4.87;4.37;;;27.00;24.50;;;;;;10478488;28;20224;-73
2021/09/05 17:41:01;;;;;;;4.90;4.20;;;26.80;24.70;;;;;;10473757;28;20700;-75
2021/09/05 17:46:04;;;;;;;5.50;4.90;;;26.70;24.70;;;;;;10477667;28;20223;-74
2021/09/05 17:51:09;;;;;;;4.50;4.20;;;26.50;25.20;;;;;;10478686;28;20231;-74
2021/09/05 17:56:13;;;;;;;4.83;4.37;;;26.40;25.40;;;;;;10477383;28;20236;-75
2021/09/05 18:01:17;;;;;;;5.27;4.77;;;26.20;25.60;;;;;;10479651;28;20237;-71
2021/09/05 18:06:22;;;;;;;5.50;5.10;;;26.00;25.60;;;;;;10483792;28;20235;-76
2021/09/05 18:11:25;;;;;;;8.10;5.80;;;25.90;26.00;;;;;;10482840;28;20346;-76
2021/09/05 18:16:31;;;;;;;6.33;5.40;;;25.70;25.80;;;;;;10482820;28;20715;-70
2021/09/05 18:21:38;;;;;;;5.83;5.20;;;25.60;26.10;;;;;;10479465;28;20234;-71
2021/09/05 18:26:42;;;;;;;5.97;5.03;;;25.40;26.50;;;;;;10482673;28;20300;-75
2021/09/05 18:31:50;;;;;;;5.73;5.23;;;25.20;26.20;;;;;;10481872;28;20608;-74
2021/09/05 18:36:55;;;;;;;6.30;5.70;;;25.00;26.20;;;;;;10483143;28;20303;-73
2021/09/05 18:41:58;;;;;;;6.10;5.50;;;24.80;26.40;;;;;;10480322;28;20239;-73
2021/09/05 18:47:02;;;;;;;5.60;5.10;;;24.50;26.50;;;;;;10476360;28;20223;-73
2021/09/05 18:52:07;;;;;;;5.77;5.27;;;24.40;26.80;;;;;;10477696;28;20221;-73
2021/09/05 18:57:10;;;;;;;6.37;5.87;;;24.20;27.30;;;;;;10474525;28;20220;-74
2021/09/05 19:02:13;;;;;;;6.20;5.70;;;24.10;27.00;;;;;;10465908;28;20232;-74
2021/09/05 19:07:19;;;;;;;6.63;6.03;;;23.90;27.10;;;;;;10474383;28;20221;-74
2021/09/05 19:12:22;;;;;;;6.03;5.53;;;23.80;27.40;;;;;;10479736;28;20263;-74
2021/09/05 19:17:25;;;;;;;6.50;5.90;;;23.60;27.20;;;;;;10477360;28;20307;-74
2021/09/05 19:22:30;;;;;;;7.80;7.00;;;23.30;27.50;;;;;;10475591;28;20228;-74
2021/09/05 19:27:33;;;;;;;7.60;6.40;;;23.10;27.40;;;;;;10480500;28;20227;-74
2021/09/05 19:32:37;;;;;;;7.17;5.97;;;22.80;27.20;;;;;;10478124;28;20708;-74
2021/09/05 19:37:41;;;;;;;7.37;6.33;;;22.60;27.50;;;;;;10478306;28;20224;-74
2021/09/05 19:42:44;;;;;;;7.83;6.30;;;22.40;28.00;;;;;;10474214;28;20224;-74
2021/09/05 19:47:48;;;;;;;6.27;5.67;;;22.20;28.00;;;;;;10479462;28;22493;-74
2021/09/05 19:52:53;;;;;;;6.37;5.87;;;22.00;28.30;;;;;;10478766;28;20240;-73
2021/09/05 19:57:56;;;;;;;7.00;6.30;;;21.90;28.70;;;;;;10481689;28;20776;-73
2021/09/05 20:02:59;;;;;;;9.93;6.30;;;21.80;28.70;;;;;;10478402;28;20795;-73
2021/09/05 20:08:05;;;;;;;7.33;6.43;;;21.80;28.80;;;;;;10478646;28;20852;-74
2021/09/05 20:13:12;;;;;;;7.80;6.07;;;21.60;29.20;;;;;;10478536;28;20923;-74
2021/09/05 20:18:15;;;;;;;5.47;4.97;;;21.50;28.90;;;;;;10478252;28;20575;-74
2021/09/05 20:23:20;;;;;;;6.70;6.20;;;21.30;29.00;;;;;;10477865;28;20224;-74
2021/09/05 20:28:23;;;;;;;7.10;6.30;;;21.20;29.70;;;;;;10476107;28;20302;-73
2021/09/05 20:33:26;;;;;;;6.40;5.90;;;21.10;29.40;;;;;;10476302;28;20230;-73
2021/09/05 20:38:31;;;;;;;6.23;5.33;;;21.00;29.40;;;;;;10475346;28;20258;-74
2021/09/05 20:43:34;;;;;;;6.90;6.20;;;20.90;29.80;;;;;;10473496;28;20232;-74
2021/09/05 20:48:39;;;;;;;6.10;5.57;;;20.80;29.70;;;;;;10478517;28;20939;-74
2021/09/05 20:53:43;;;;;;;6.97;6.37;;;20.80;29.80;;;;;;10476481;28;20246;-74
2021/09/05 20:58:47;;;;;;;7.50;6.47;;;20.70;30.20;;;;;;10476461;28;20227;-74
2021/09/05 21:03:50;;;;;;;7.63;7.00;;;20.60;29.90;;;;;;10474866;28;20255;-74
2021/09/05 21:08:55;;;;;;;6.60;6.00;;;20.50;29.90;;;;;;10478572;28;20224;-74
2021/09/05 21:13:58;;;;;;;6.30;5.70;;;20.30;30.40;;;;;;10477261;28;20227;-73
2021/09/05 21:19:02;;;;;;;6.37;5.77;;;20.30;30.00;;;;;;10481164;28;20224;-72
2021/09/05 21:24:07;;;;;;;6.60;6.00;;;20.20;30.30;;;;;;10485736;28;20343;-74
2021/09/05 21:29:10;;;;;;;6.67;5.97;;;20.20;31.10;;;;;;10484513;28;20617;-73
2021/09/05 21:34:13;;;;;;;6.63;6.03;;;20.20;30.40;;;;;;10485259;28;20224;-74
2021/09/05 21:39:18;;;;;;;6.07;5.43;;;20.20;30.50;;;;;;10482937;28;20220;-74
2021/09/05 21:44:21;;;;;;;6.03;5.53;;;20.20;30.80;;;;;;10482283;28;21192;-73
2021/09/05 21:49:24;;;;;;;5.50;4.93;;;20.20;30.40;;;;;;10480792;28;20893;-75
2021/09/05 21:54:29;;;;;;;6.03;5.43;;;20.10;30.50;;;;;;10482789;28;20223;-74
2021/09/05 21:59:33;;;;;;;6.53;5.80;;;20.10;30.80;;;;;;10484204;28;20697;-74
2021/09/05 22:04:36;;;;;;;5.33;4.93;;;20.00;30.50;;;;;;10483572;28;20228;-74
2021/09/05 22:09:41;;;;;;;6.77;6.17;;;20.00;30.60;;;;;;10483089;28;20231;-75
2021/09/05 22:14:44;;;;;;;6.27;5.77;;;20.00;31.10;;;;;;10484000;28;20875;-74
2021/09/05 22:19:47;;;;;;;6.60;6.00;;;19.90;30.60;;;;;;10482520;28;20255;-73
2021/09/05 22:24:52;;;;;;;8.17;6.20;;;19.90;30.80;;;;;;10482390;28;20232;-74
2021/09/05 22:29:55;;;;;;;6.67;6.07;;;19.80;31.20;;;;;;10482435;28;20224;-73
2021/09/05 22:34:58;;;;;;;7.07;6.07;;;19.70;30.80;;;;;;10483655;28;20227;-73
2021/09/05 22:40:03;;;;;;;6.33;5.27;;;19.60;31.10;;;;;;10477364;28;20227;-76
2021/09/05 22:45:08;;;;;;;6.33;5.73;;;19.50;31.40;;;;;;10480614;28;20235;-74
2021/09/05 22:50:12;;;;;;;6.40;5.83;;;19.50;31.20;;;;;;10480497;28;20254;-74
2021/09/05 22:55:17;;;;;;;5.33;4.93;;;19.40;31.30;;;;;;10483169;28;20224;-74
2021/09/05 23:00:20;;;;;;;6.70;6.10;;;19.40;31.80;;;;;;10477308;28;20224;-74
2021/09/05 23:05:24;;;;;;;5.83;5.33;;;19.30;31.50;;;;;;10480319;28;20227;-74
2021/09/05 23:10:28;;;;;;;6.53;5.93;;;19.30;31.50;;;;;;10482192;28;20601;-74
2021/09/05 23:15:32;;;;;;;5.93;5.43;;;19.20;32.00;;;;;;10481979;28;20224;-74
2021/09/05 23:20:36;;;;;;;6.40;5.80;;;19.20;31.60;;;;;;10481272;28;20712;-74
2021/09/05 23:25:40;;;;;;;6.60;6.00;;;19.10;31.30;;;;;;10480394;28;20235;-74
2021/09/05 23:30:43;;;;;;;6.77;6.13;;;19.00;31.70;;;;;;10481064;28;20224;-74
2021/09/05 23:35:46;;;;;;;6.50;5.90;;;18.90;31.60;;;;;;10477653;28;20220;-74
2021/09/05 23:40:51;;;;;;;6.40;5.80;;;18.80;31.90;;;;;;10480278;28;20231;-74
2021/09/05 23:45:54;;;;;;;6.77;6.17;;;18.70;32.10;;;;;;10478519;28;20232;-73
2021/09/05 23:50:57;;;;;;;6.73;5.73;;;18.60;31.70;;;;;;10480052;28;20953;-73
2021/09/05 23:56:02;;;;;;;6.97;6.37;;;18.50;31.80;;;;;;10479591;28;20224;-74
